Time;durP1;ratioP1;P1;durP2;ratioP2;P2;SDS_P1;SDS_P2;PMS_P1;PMS_P2;Temp;Humidity;BMP_temperature;BMP_pressure;BME280_temperature;BME280_humidity;BME280_pressure;Samples;Min_cycle;Max_cycle;Signal;HPM_P1;HPM_P2
2021/12/18 16:30:05;;;;;;;46.42;21.92;;;;;;;;;;5065691;28;20859;-66
2021/12/18 16:32:31;;;;;;;30.70;17.23;;;;;;;;;;5066993;28;20033;-68
2021/12/18 16:34:57;;;;;;;30.42;15.85;;;;;;;;;;5076034;28;20024;-68
2021/12/18 16:37:29;;;;;;;30.35;15.65;;;;;;;;;;5068250;28;20048;-68
2021/12/18 16:39:58;;;;;;;20.90;12.85;;;;;;;;;;5068855;28;20028;-67
2021/12/18 16:42:24;;;;;;;21.40;12.38;;;;;;;;;;5066862;28;20021;-68
2021/12/18 16:44:50;;;;;;;19.27;12.25;;;;;;;;;;5067965;28;20050;-68
2021/12/18 16:47:16;;;;;;;21.35;12.20;;;;;;;;;;5075798;28;20024;-69
2021/12/18 16:49:50;;;;;;;21.17;13.35;;;;;;;;;;5069023;28;20025;-69
2021/12/18 16:52:16;;;;;;;20.75;13.57;;;;;;;;;;5065952;28;20021;-67
2021/12/18 16:54:42;;;;;;;17.98;12.07;;;;;;;;;;5066044;28;20030;-69
2021/12/18 16:57:09;;;;;;;18.33;11.55;;;;;;;;;;5067264;28;20086;-69
2021/12/18 16:59:35;;;;;;;19.42;12.32;;;;;;;;;;5066291;28;20029;-68
2021/12/18 17:02:01;;;;;;;16.17;11.02;;;;;;;;;;5066510;28;20025;-68
2021/12/18 17:04:27;;;;;;;16.63;11.68;;;;;;;;;;5066268;28;20017;-68
2021/12/18 17:06:53;;;;;;;15.85;10.23;;;;;;;;;;5078661;28;20567;-68
2021/12/18 17:09:19;;;;;;;14.90;11.02;;;;;;;;;;5065017;28;20114;-67
2021/12/18 17:11:45;;;;;;;17.95;10.77;;;;;;;;;;5065757;28;20029;-67
2021/12/18 17:14:11;;;;;;;16.25;10.32;;;;;;;;;;5064143;28;20112;-67
2021/12/18 17:16:38;;;;;;;14.00;10.38;;;;;;;;;;5081585;28;20024;-68
2021/12/18 17:19:04;;;;;;;12.15;9.45;;;;;;;;;;5065802;28;20135;-69
2021/12/18 17:21:30;;;;;;;11.30;8.55;;;;;;;;;;5066032;28;20056;-68
2021/12/18 17:23:56;;;;;;;13.05;8.52;;;;;;;;;;5068257;28;20031;-68
2021/12/18 17:26:22;;;;;;;11.52;8.25;;;;;;;;;;5063965;28;20531;-69
2021/12/18 17:28:48;;;;;;;10.10;8.07;;;;;;;;;;5064230;28;20045;-70
2021/12/18 17:31:14;;;;;;;15.43;12.02;;;;;;;;;;5063121;28;20078;-71
2021/12/18 17:33:40;;;;;;;13.82;10.23;;;;;;;;;;5074592;28;20032;-70
2021/12/18 17:36:06;;;;;;;12.75;9.43;;;;;;;;;;5081058;28;20517;-71
2021/12/18 17:38:33;;;;;;;16.10;10.27;;;;;;;;;;5065111;28;20457;-69
2021/12/18 17:40:59;;;;;;;15.13;11.88;;;;;;;;;;5053566;28;20025;-70
2021/12/18 17:43:25;;;;;;;14.38;11.32;;;;;;;;;;5048215;28;20052;-71
2021/12/18 17:45:51;;;;;;;18.88;11.45;;;;;;;;;;5044425;28;20021;-71
2021/12/18 17:48:17;;;;;;;12.43;9.20;;;;;;;;;;5055173;28;20106;-70
2021/12/18 17:50:43;;;;;;;10.68;7.90;;;;;;;;;;5049317;28;20017;-69
2021/12/18 17:53:09;;;;;;;16.55;8.60;;;;;;;;;;5049140;28;20021;-70
2021/12/18 17:55:38;;;;;;;14.00;9.40;;;;;;;;;;5051030;28;20025;-70
2021/12/18 17:58:04;;;;;;;11.35;8.43;;;;;;;;;;5053590;28;20055;-71
2021/12/18 18:00:30;;;;;;;12.88;9.55;;;;;;;;;;5050398;28;20056;-69
2021/12/18 18:02:57;;;;;;;13.27;8.82;;;;;;;;;;5047144;28;20447;-69
2021/12/18 18:05:23;;;;;;;11.68;8.80;;;;;;;;;;5051863;28;20031;-70
2021/12/18 18:07:50;;;;;;;12.57;8.60;;;;;;;;;;5049673;28;20037;-71
2021/12/18 18:10:19;;;;;;;14.98;8.63;;;;;;;;;;5048690;28;20028;-69
2021/12/18 18:12:45;;;;;;;14.70;10.10;;;;;;;;;;5051379;28;20384;-69
2021/12/18 18:15:11;;;;;;;15.52;10.00;;;;;;;;;;5050511;28;20024;-69
2021/12/18 18:17:40;;;;;;;14.07;9.77;;;;;;;;;;5051225;28;20017;-69
2021/12/18 18:20:07;;;;;;;14.65;10.07;;;;;;;;;;5050784;28;20369;-69
2021/12/18 18:22:34;;;;;;;17.52;9.93;;;;;;;;;;5050963;28;20037;-67
2021/12/18 18:25:00;;;;;;;15.77;10.60;;;;;;;;;;5051702;28;20025;-68
2021/12/18 18:27:27;;;;;;;24.60;15.65;;;;;;;;;;5050094;28;20021;-68
2021/12/18 18:29:56;;;;;;;19.88;14.05;;;;;;;;;;5049104;28;20052;-68
2021/12/18 18:32:22;;;;;;;20.38;13.50;;;;;;;;;;5049275;28;20119;-67
2021/12/18 18:34:48;;;;;;;16.30;11.60;;;;;;;;;;5050963;28;20460;-68
2021/12/18 18:37:14;;;;;;;17.33;10.63;;;;;;;;;;5049716;28;20029;-67
2021/12/18 18:39:41;;;;;;;13.63;10.60;;;;;;;;;;5026666;28;20492;-69
2021/12/18 18:42:13;;;;;;;12.77;10.40;;;;;;;;;;5029608;28;20479;-67
2021/12/18 18:44:39;;;;;;;14.02;10.30;;;;;;;;;;5048261;28;20082;-67
2021/12/18 18:47:08;;;;;;;16.23;11.10;;;;;;;;;;5051181;28;20037;-67
2021/12/18 18:49:38;;;;;;;15.85;10.77;;;;;;;;;;5051185;28;20028;-67
2021/12/18 18:52:05;;;;;;;16.10;11.77;;;;;;;;;;5050025;28;20017;-68
2021/12/18 18:54:31;;;;;;;17.60;11.75;;;;;;;;;;5052402;28;20108;-67
2021/12/18 18:56:57;;;;;;;18.92;13.15;;;;;;;;;;5050236;28;20025;-68
2021/12/18 18:59:23;;;;;;;22.00;13.27;;;;;;;;;;5050910;28;20052;-68
2021/12/18 19:01:49;;;;;;;18.05;14.23;;;;;;;;;;5051290;28;20025;-67
2021/12/18 19:04:15;;;;;;;20.13;14.35;;;;;;;;;;5050713;28;20033;-68
2021/12/18 19:06:41;;;;;;;25.73;16.35;;;;;;;;;;5050794;28;20048;-68
2021/12/18 19:09:07;;;;;;;37.58;21.50;;;;;;;;;;5049969;28;20039;-68
2021/12/18 19:11:34;;;;;;;40.30;23.63;;;;;;;;;;5050490;28;20017;-68
2021/12/18 19:14:00;;;;;;;40.67;23.65;;;;;;;;;;5049339;28;20029;-67
2021/12/18 19:16:26;;;;;;;47.95;25.25;;;;;;;;;;5050025;28;20036;-68
2021/12/18 19:19:02;;;;;;;44.33;25.85;;;;;;;;;;5050290;28;20035;-68
2021/12/18 19:21:28;;;;;;;32.95;22.73;;;;;;;;;;5047618;28;20033;-68
2021/12/18 19:23:55;;;;;;;38.47;23.15;;;;;;;;;;5049481;28;20036;-68
2021/12/18 19:26:21;;;;;;;26.23;16.50;;;;;;;;;;5048669;28;20021;-67
2021/12/18 19:28:47;;;;;;;24.60;16.75;;;;;;;;;;5049177;28;20112;-66
2021/12/18 19:31:14;;;;;;;23.63;16.40;;;;;;;;;;5045932;28;20670;-67
2021/12/18 19:33:41;;;;;;;19.85;14.90;;;;;;;;;;5050095;28;20371;-67
2021/12/18 19:36:08;;;;;;;20.52;15.30;;;;;;;;;;5050065;28;20086;-67
2021/12/18 19:38:34;;;;;;;20.48;14.48;;;;;;;;;;5049641;28;20029;-66
2021/12/18 19:41:03;;;;;;;22.67;14.38;;;;;;;;;;5049734;28;20043;-67
2021/12/18 19:43:29;;;;;;;21.35;13.73;;;;;;;;;;5052897;28;20029;-67
2021/12/18 19:45:57;;;;;;;25.88;14.93;;;;;;;;;;5051698;28;20051;-67
2021/12/18 19:48:23;;;;;;;41.03;23.08;;;;;;;;;;5049145;28;20107;-67
2021/12/18 19:50:50;;;;;;;42.92;23.10;;;;;;;;;;5045555;28;20384;-67
2021/12/18 19:53:16;;;;;;;64.22;29.95;;;;;;;;;;5049143;28;20495;-67
2021/12/18 19:55:42;;;;;;;54.00;29.17;;;;;;;;;;5045326;28;20491;-67
2021/12/18 19:58:08;;;;;;;43.58;26.58;;;;;;;;;;5047370;28;20086;-67
2021/12/18 20:00:35;;;;;;;39.13;24.25;;;;;;;;;;5048635;28;20021;-67
2021/12/18 20:04:31;;;;;;;33.63;22.65;;;;;;;;;;5049009;28;20029;-67
2021/12/18 20:05:53;;;;;;;38.67;22.48;;;;;;;;;;5046982;28;20516;-67
2021/12/18 20:08:19;;;;;;;31.38;20.58;;;;;;;;;;5047210;28;20021;-67
2021/12/18 20:10:46;;;;;;;36.22;21.15;;;;;;;;;;5049108;28;20017;-67
2021/12/18 20:13:12;;;;;;;32.55;20.17;;;;;;;;;;5047943;28;20108;-66
2021/12/18 20:15:39;;;;;;;29.42;18.52;;;;;;;;;;5044644;28;20033;-67
2021/12/18 20:18:05;;;;;;;29.90;18.25;;;;;;;;;;5051192;28;20403;-67
2021/12/18 20:20:32;;;;;;;25.35;16.70;;;;;;;;;;5048101;28;20031;-67
2021/12/18 20:23:02;;;;;;;22.17;16.65;;;;;;;;;;5047530;28;20059;-67
2021/12/18 20:25:29;;;;;;;20.48;15.77;;;;;;;;;;5051402;28;20101;-67
2021/12/18 20:27:55;;;;;;;19.55;13.60;;;;;;;;;;5065655;28;20040;-67
2021/12/18 20:30:21;;;;;;;22.05;14.23;;;;;;;;;;5053594;28;20040;-67
2021/12/18 20:32:47;;;;;;;17.05;12.23;;;;;;;;;;5057231;28;20117;-66
2021/12/18 20:35:16;;;;;;;18.52;12.20;;;;;;;;;;5043821;28;20064;-66
2021/12/18 20:37:43;;;;;;;17.35;12.57;;;;;;;;;;5029553;28;20026;-68
2021/12/18 20:40:11;;;;;;;16.77;13.00;;;;;;;;;;5029496;28;20030;-67
2021/12/18 20:42:37;;;;;;;18.00;13.20;;;;;;;;;;5017765;28;20362;-66
2021/12/18 20:45:03;;;;;;;19.15;14.35;;;;;;;;;;5028164;28;20030;-67
2021/12/18 20:47:29;;;;;;;21.10;14.75;;;;;;;;;;5029435;28;20439;-66
2021/12/18 20:49:55;;;;;;;25.02;17.25;;;;;;;;;;5029596;28;20057;-67
2021/12/18 20:52:21;;;;;;;26.17;16.20;;;;;;;;;;5039480;28;20033;-68
2021/12/18 20:54:47;;;;;;;21.10;15.43;;;;;;;;;;5049363;28;20029;-67
2021/12/18 20:57:13;;;;;;;23.10;15.40;;;;;;;;;;5052764;28;20021;-67
2021/12/18 20:59:40;;;;;;;19.30;12.80;;;;;;;;;;5049153;28;20035;-68
2021/12/18 21:02:06;;;;;;;17.27;13.38;;;;;;;;;;5049441;28;20021;-68
2021/12/18 21:04:32;;;;;;;16.15;12.43;;;;;;;;;;5047873;28;20039;-68
2021/12/18 21:06:58;;;;;;;21.70;13.25;;;;;;;;;;5049098;28;20025;-68
2021/12/18 21:09:24;;;;;;;20.15;12.90;;;;;;;;;;5049291;28;20027;-68
2021/12/18 21:11:50;;;;;;;17.80;13.25;;;;;;;;;;5045785;28;20050;-69
2021/12/18 21:14:16;;;;;;;21.25;15.48;;;;;;;;;;5047169;28;20053;-68
2021/12/18 21:16:43;;;;;;;22.05;16.02;;;;;;;;;;5052263;28;20017;-68
2021/12/18 21:19:12;;;;;;;23.38;14.38;;;;;;;;;;5052836;28;20021;-69
2021/12/18 21:21:38;;;;;;;21.95;14.30;;;;;;;;;;5052527;28;20387;-68
2021/12/18 21:24:04;;;;;;;19.67;14.07;;;;;;;;;;5052693;28;20029;-68
2021/12/18 21:26:31;;;;;;;23.48;14.05;;;;;;;;;;5051103;28;20127;-67
2021/12/18 21:28:57;;;;;;;22.98;14.75;;;;;;;;;;5052411;28;20105;-68
2021/12/18 21:31:23;;;;;;;23.60;15.05;;;;;;;;;;5052582;28;20028;-67
2021/12/18 21:33:52;;;;;;;26.60;14.98;;;;;;;;;;5052582;28;20515;-66
2021/12/18 21:39:11;;;;;;;27.35;15.20;;;;;;;;;;5052279;28;20044;-66
2021/12/18 21:41:39;;;;;;;19.48;13.00;;;;;;;;;;5050949;28;20538;-66
2021/12/18 21:44:05;;;;;;;22.67;14.25;;;;;;;;;;5051891;28;20116;-66
2021/12/18 21:46:31;;;;;;;17.95;13.23;;;;;;;;;;5052756;28;20025;-66
2021/12/18 21:48:57;;;;;;;20.50;13.25;;;;;;;;;;5052241;28;20017;-66
2021/12/18 21:51:23;;;;;;;18.38;12.43;;;;;;;;;;5051691;28;20032;-66
2021/12/18 21:53:49;;;;;;;19.48;11.80;;;;;;;;;;5039125;28;20026;-66
2021/12/18 21:56:15;;;;;;;18.10;12.15;;;;;;;;;;5047476;28;20029;-68
2021/12/18 21:58:42;;;;;;;20.33;12.82;;;;;;;;;;5032164;28;20030;-67
2021/12/18 22:01:08;;;;;;;18.95;12.43;;;;;;;;;;5041571;28;20089;-68
2021/12/18 22:03:35;;;;;;;19.92;13.48;;;;;;;;;;5051720;28;20037;-68
